createdAt,value
2018-01-12T00:00:08.844Z,77.40
2018-01-12T00:02:36.364Z,74.70
2018-01-12T00:05:03.190Z,69.97
2018-01-12T00:07:30.749Z,65.97
2018-01-12T00:09:58.823Z,78.65
2018-01-12T00:12:26.384Z,72.50
2018-01-12T00:14:53.162Z,74.43
2018-01-12T00:17:19.997Z,80.07
2018-01-12T00:19:46.799Z,75.85
2018-01-12T00:22:13.935Z,71.18
2018-01-12T00:24:41.536Z,73.62
2018-01-12T00:27:08.385Z,81.18
2018-01-12T00:29:35.160Z,74.43
2018-01-12T00:32:02.504Z,71.97
2018-01-12T00:34:29.355Z,68.30
2018-01-12T00:36:57.039Z,67.57
2018-01-12T00:39:25.352Z,72.40
2018-01-12T00:41:53.010Z,68.12
2018-01-12T00:44:19.929Z,67.00
2018-01-12T00:46:47.589Z,66.10
2018-01-12T00:49:14.443Z,70.18
2018-01-12T00:51:41.356Z,66.40
2018-01-12T00:54:08.244Z,59.72
2018-01-12T00:56:35.150Z,66.75
2018-01-12T00:59:02.783Z,63.45
2018-01-12T01:01:29.693Z,70.32
2018-01-12T01:03:57.256Z,62.83
2018-01-12T01:06:24.133Z,66.68
2018-01-12T01:08:51.670Z,70.90
2018-01-12T01:11:18.518Z,59.25
2018-01-12T01:13:45.393Z,58.67
2018-01-12T01:16:12.164Z,56.40
2018-01-12T01:18:38.956Z,50.78
2018-01-12T01:21:06.458Z,63.17
2018-01-12T01:23:33.245Z,65.45
2018-01-12T01:26:00.088Z,61.88
2018-01-12T01:28:26.893Z,62.00
2018-01-12T01:30:53.714Z,60.20
2018-01-12T01:33:20.539Z,59.35
2018-01-12T01:35:48.062Z,65.55
2018-01-12T01:38:17.196Z,63.53
2018-01-12T01:40:44.044Z,61.28
2018-01-12T01:43:10.843Z,68.15
2018-01-12T01:45:38.361Z,76.03
2018-01-12T01:48:05.201Z,102.43
2018-01-12T01:50:32.025Z,121.72
2018-01-12T01:52:58.838Z,145.77
2018-01-12T01:55:25.610Z,182.25
2018-01-12T01:57:52.462Z,147.93
2018-01-12T02:00:19.244Z,178.12
2018-01-12T02:02:46.030Z,186.23
2018-01-12T02:05:12.839Z,181.25
2018-01-12T02:07:40.361Z,194.62
2018-01-12T02:10:07.186Z,205.55
2018-01-12T02:12:33.971Z,222.20
2018-01-12T02:15:00.751Z,198.02
2018-01-12T02:17:27.517Z,174.98
2018-01-12T02:19:55.084Z,210.98
2018-01-12T02:22:21.906Z,195.02
2018-01-12T02:24:48.680Z,197.75
2018-01-12T02:27:15.443Z,190.85
2018-01-12T02:29:42.200Z,192.48
2018-01-12T02:32:09.003Z,190.43
2018-01-12T02:34:35.820Z,188.77
2018-01-12T02:37:02.580Z,199.85
2018-01-12T02:39:29.376Z,179.68
2018-01-12T02:41:56.979Z,186.88
2018-01-12T02:44:23.731Z,193.90
2018-01-12T02:46:50.478Z,205.18
2018-01-12T02:49:18.007Z,200.52
2018-01-12T02:51:44.816Z,175.87
2018-01-12T02:54:12.356Z,186.95
2018-01-12T02:56:39.187Z,211.20
2018-01-12T02:59:06.945Z,197.73
2018-01-12T03:01:33.793Z,211.27
2018-01-12T03:04:01.403Z,199.20
2018-01-12T03:06:28.292Z,230.43
2018-01-12T03:08:55.164Z,228.25
2018-01-12T03:11:22.076Z,209.00
2018-01-12T03:13:48.892Z,213.23
2018-01-12T03:16:15.706Z,210.77
2018-01-12T03:18:42.497Z,210.82
2018-01-12T03:21:09.285Z,215.93
2018-01-12T03:23:36.053Z,221.18
2018-01-12T03:26:03.573Z,221.77
2018-01-12T03:28:30.333Z,218.55
2018-01-12T03:30:57.128Z,213.98
2018-01-12T03:33:23.951Z,201.05
2018-01-12T03:35:50.740Z,217.70
2018-01-12T03:38:17.529Z,197.70
2018-01-12T03:40:45.044Z,176.20
2018-01-12T03:43:12.600Z,188.57
2018-01-12T03:45:39.444Z,174.65
2018-01-12T03:48:06.214Z,192.85
2018-01-12T03:50:33.717Z,176.57
2018-01-12T03:53:00.490Z,169.87
2018-01-12T03:55:27.284Z,194.13
2018-01-12T03:57:54.085Z,162.90
2018-01-12T04:00:20.903Z,180.48
2018-01-12T04:02:47.754Z,184.77
2018-01-12T04:05:14.511Z,172.95
2018-01-12T04:07:41.294Z,168.40
2018-01-12T04:10:08.112Z,187.32
2018-01-12T04:12:34.882Z,174.70
2018-01-12T04:15:01.694Z,172.77
2018-01-12T04:17:28.469Z,192.57
2018-01-12T04:19:55.262Z,191.85
2018-01-12T04:22:22.065Z,162.73
2018-01-12T04:24:49.598Z,165.80
2018-01-12T04:27:16.416Z,175.93
2018-01-12T04:29:43.189Z,195.65
2018-01-12T04:32:10.005Z,197.32
2018-01-12T04:34:36.793Z,162.48
2018-01-12T04:37:03.628Z,168.73
2018-01-12T04:39:31.192Z,147.35
2018-01-12T04:41:58.028Z,167.73
2018-01-12T04:44:24.798Z,140.10
2018-01-12T04:46:51.585Z,149.18
2018-01-12T04:49:18.357Z,134.37
2018-01-12T04:51:45.160Z,139.62
2018-01-12T04:54:11.962Z,133.95
2018-01-12T04:56:38.772Z,133.15
2018-01-12T04:59:05.597Z,139.02
2018-01-12T05:01:33.130Z,140.93
2018-01-12T05:03:59.963Z,141.45
2018-01-12T05:06:26.735Z,130.45
2018-01-12T05:08:53.511Z,137.05
2018-01-12T05:11:20.295Z,134.85
2018-01-12T05:13:47.037Z,123.50
2018-01-12T05:16:13.795Z,127.05
2018-01-12T05:18:40.725Z,124.43
2018-01-12T05:21:07.551Z,124.43
2018-01-12T05:23:35.048Z,119.40
2018-01-12T05:26:01.803Z,108.50
2018-01-12T05:28:28.579Z,111.85
2018-01-12T05:30:55.396Z,130.40
2018-01-12T05:33:22.217Z,130.05
2018-01-12T05:35:49.004Z,137.32
2018-01-12T05:38:15.810Z,153.12
2018-01-12T05:40:42.636Z,149.57
2018-01-12T05:43:09.472Z,167.23
2018-01-12T05:45:36.313Z,128.55
2018-01-12T05:48:03.093Z,142.82
2018-01-12T05:50:29.898Z,165.27
2018-01-12T05:52:57.414Z,152.95
2018-01-12T05:55:24.233Z,146.68
2018-01-12T05:57:51.773Z,143.13
2018-01-12T06:00:19.549Z,147.80
2018-01-12T06:03:04.570Z,136.90
2018-01-12T06:05:49.497Z,143.40
2018-01-12T06:08:16.287Z,144.00
2018-01-12T06:10:43.097Z,148.55
2018-01-12T06:13:09.898Z,139.55
2018-01-12T06:15:36.721Z,154.73
2018-01-12T06:18:03.541Z,144.05
2018-01-12T06:20:31.118Z,153.70
2018-01-12T06:22:58.677Z,143.20
2018-01-12T06:25:25.490Z,144.18
2018-01-12T06:27:52.335Z,145.38
2018-01-12T06:30:19.187Z,136.07
2018-01-12T06:32:46.510Z,148.05
2018-01-12T06:35:14.145Z,136.43
2018-01-12T06:37:41.016Z,140.32
2018-01-12T06:40:07.813Z,141.77
2018-01-12T06:42:34.622Z,136.20
2018-01-12T06:45:01.460Z,129.38
2018-01-12T06:47:29.424Z,134.55
2018-01-12T06:49:56.321Z,131.65
2018-01-12T06:52:23.862Z,135.70
2018-01-12T06:54:50.666Z,133.57
2018-01-12T06:57:18.207Z,149.05
2018-01-12T06:59:45.633Z,142.55
2018-01-12T07:02:12.460Z,135.82
2018-01-12T07:04:39.271Z,142.13
2018-01-12T07:07:06.109Z,153.68
2018-01-12T07:09:32.952Z,137.07
2018-01-12T07:12:00.557Z,156.10
2018-01-12T07:14:27.387Z,153.40
2018-01-12T07:16:54.933Z,151.95
2018-01-12T07:19:21.750Z,152.98
2018-01-12T07:22:06.762Z,152.38
2018-01-12T07:24:33.547Z,145.32
2018-01-12T07:27:00.369Z,136.40
2018-01-12T07:29:27.154Z,130.68
2018-01-12T07:31:54.701Z,135.75
2018-01-12T07:34:21.486Z,129.38
2018-01-12T07:36:48.282Z,127.87
2018-01-12T07:39:15.842Z,127.93
2018-01-12T07:41:42.657Z,134.85
2018-01-12T07:44:09.460Z,146.18
2018-01-12T07:46:36.258Z,136.20
2018-01-12T07:49:03.241Z,330.67
2018-01-12T07:51:30.780Z,131.90
2018-01-12T07:53:58.317Z,121.75
2018-01-12T07:56:25.125Z,134.35
2018-01-12T07:58:52.636Z,155.80
2018-01-12T08:01:26.112Z,168.75
2018-01-12T08:03:53.673Z,160.10
2018-01-12T08:06:20.515Z,133.60
2018-01-12T08:08:47.391Z,173.32
2018-01-12T08:11:14.218Z,134.93
2018-01-12T08:13:41.052Z,167.62
2018-01-12T08:16:07.888Z,130.65
2018-01-12T08:18:34.696Z,166.80
2018-01-12T08:21:01.494Z,154.73
2018-01-12T08:23:28.346Z,132.50
2018-01-12T08:25:55.232Z,137.00
2018-01-12T08:28:22.750Z,131.30
2018-01-12T08:30:49.558Z,130.32
2018-01-12T08:33:16.372Z,138.23
2018-01-12T08:35:43.235Z,124.18
2018-01-12T08:38:10.735Z,111.95
2018-01-12T08:40:37.526Z,121.93
2018-01-12T08:43:04.339Z,111.68
2018-01-12T08:45:31.159Z,119.68
2018-01-12T08:47:58.685Z,116.32
2018-01-12T08:50:27.329Z,121.90
2018-01-12T08:52:55.104Z,126.90
2018-01-12T08:55:22.715Z,130.65
2018-01-12T08:57:49.570Z,118.30
2018-01-12T09:00:16.402Z,113.00
2018-01-12T09:02:43.999Z,120.72
2018-01-12T09:05:11.569Z,119.03
2018-01-12T09:07:39.180Z,105.53
2018-01-12T09:10:06.021Z,118.45
2018-01-12T09:12:33.598Z,103.47
2018-01-12T09:28:26.142Z,98.00
2018-01-12T09:30:53.089Z,115.03
2018-01-12T09:33:19.972Z,115.97
2018-01-12T09:35:46.852Z,108.78
2018-01-12T09:38:21.780Z,102.95
2018-01-12T09:40:48.664Z,94.53
2018-01-12T09:43:15.521Z,107.00
2018-01-12T09:45:42.447Z,107.32
2018-01-12T09:48:25.484Z,129.00
2018-01-12T09:50:52.312Z,119.13
2018-01-12T09:53:19.849Z,136.50
2018-01-12T09:55:46.654Z,154.85
2018-01-12T09:58:13.497Z,122.43
2018-01-12T10:00:42.013Z,120.90
2018-01-12T10:03:08.903Z,120.78
2018-01-12T10:05:36.573Z,153.20
2018-01-12T10:08:04.429Z,109.30
2018-01-12T10:10:32.026Z,108.80
2018-01-12T10:12:58.884Z,115.37
2018-01-12T10:15:25.712Z,99.90
2018-01-12T10:17:55.595Z,112.82
2018-01-12T10:20:35.404Z,107.43
2018-01-12T10:23:02.292Z,117.10
2018-01-12T10:25:29.134Z,118.87
2018-01-12T10:27:59.068Z,109.40
2018-01-12T10:44:01.918Z,113.22
2018-01-12T10:46:56.918Z,116.47
2018-01-12T10:49:26.587Z,119.00
2018-01-12T10:52:01.521Z,113.55
2018-01-12T10:54:28.343Z,120.97
2018-01-12T10:56:55.908Z,115.55
2018-01-12T10:59:22.666Z,116.93
2018-01-12T11:01:49.507Z,121.15
2018-01-12T11:04:16.329Z,127.07
2018-01-12T11:06:43.155Z,124.93
2018-01-12T11:09:10.692Z,128.15
2018-01-12T11:11:37.491Z,128.55
2018-01-12T11:14:04.523Z,118.47
2018-01-12T11:16:31.362Z,124.55
2018-01-12T11:18:58.915Z,126.70
2018-01-12T11:21:25.717Z,127.95
2018-01-12T11:23:52.564Z,132.60
2018-01-12T11:26:20.096Z,132.80
2018-01-12T11:28:47.687Z,127.78
2018-01-12T11:31:15.244Z,120.32
2018-01-12T11:33:42.104Z,128.18
2018-01-12T11:36:09.056Z,123.03
2018-01-12T11:38:35.890Z,249.62
2018-01-12T11:41:02.691Z,126.25
2018-01-12T11:43:29.542Z,117.78
2018-01-12T11:45:56.355Z,132.10
2018-01-12T11:48:23.187Z,133.52
2018-01-12T11:50:50.758Z,117.50
2018-01-12T11:53:18.330Z,132.15
2018-01-12T11:55:45.228Z,130.20
2018-01-12T11:58:12.084Z,132.30
2018-01-12T12:00:38.976Z,129.27
2018-01-12T12:03:05.851Z,136.43
2018-01-12T12:05:32.785Z,131.75
2018-01-12T12:07:59.688Z,133.77
2018-01-12T12:10:26.588Z,121.20
2018-01-12T12:12:54.205Z,128.45
2018-01-12T12:15:21.102Z,140.37
2018-01-12T12:17:47.940Z,135.57
2018-01-12T12:20:14.867Z,145.07
2018-01-12T12:22:41.749Z,132.93
2018-01-12T12:25:08.682Z,135.02
2018-01-12T12:27:35.585Z,121.57
2018-01-12T12:30:02.560Z,133.35
2018-01-12T12:32:29.439Z,120.78
2018-01-12T12:34:56.289Z,125.87
2018-01-12T12:37:23.121Z,128.20
2018-01-12T12:39:49.988Z,131.07
2018-01-12T12:42:16.937Z,125.43
2018-01-12T12:44:43.812Z,125.03
2018-01-12T12:47:10.712Z,129.43
2018-01-12T12:49:38.303Z,126.38
2018-01-12T12:52:05.973Z,134.57
2018-01-12T12:54:32.851Z,139.48
2018-01-12T12:57:00.435Z,126.75
2018-01-12T12:59:27.247Z,132.05
2018-01-12T13:01:54.468Z,125.50
2018-01-12T13:04:21.306Z,115.80
2018-01-12T13:06:48.889Z,129.95
2018-01-12T13:09:15.755Z,121.35
2018-01-12T13:11:43.363Z,127.50
2018-01-12T13:14:10.227Z,127.40
2018-01-12T13:16:37.095Z,148.57
2018-01-12T13:19:03.978Z,127.55
2018-01-12T13:21:30.838Z,126.45
2018-01-12T13:23:57.728Z,124.40
2018-01-12T13:26:24.618Z,118.13
2018-01-12T13:28:51.487Z,124.40
2018-01-12T13:31:18.393Z,125.03
2018-01-12T13:33:45.325Z,125.47
2018-01-12T13:36:12.967Z,139.70
2018-01-12T13:38:40.601Z,122.35
2018-01-12T13:41:07.462Z,135.00
2018-01-12T13:43:34.286Z,127.75
2018-01-12T13:46:10.181Z,125.30
2018-01-12T13:48:39.638Z,127.68
2018-01-12T13:51:07.303Z,131.85
2018-01-12T13:53:34.145Z,123.50
2018-01-12T13:56:00.999Z,139.85
2018-01-12T13:58:28.754Z,222.00
2018-01-12T14:00:55.655Z,140.07
2018-01-12T14:03:22.529Z,123.72
2018-01-12T14:05:49.386Z,124.28
2018-01-12T14:08:16.234Z,132.70
2018-01-12T14:10:43.075Z,124.03
2018-01-12T14:13:09.950Z,117.72
2018-01-12T14:15:36.774Z,106.35
2018-01-12T14:18:03.649Z,124.10
2018-01-12T14:20:31.204Z,114.57
2018-01-12T14:22:58.100Z,127.93
2018-01-12T14:25:24.977Z,144.30
2018-01-12T14:27:51.789Z,126.62
2018-01-12T14:30:18.724Z,126.65
2018-01-12T14:32:45.575Z,122.37
2018-01-12T14:35:12.403Z,107.22
2018-01-12T14:37:39.258Z,120.70
2018-01-12T14:40:06.902Z,112.82
2018-01-12T14:42:33.771Z,122.50
2018-01-12T14:45:00.669Z,108.53
2018-01-12T14:47:27.564Z,114.20
2018-01-12T14:49:54.416Z,106.15
2018-01-12T14:52:21.362Z,116.07
2018-01-12T14:54:48.244Z,116.35
2018-01-12T14:57:16.357Z,114.43
2018-01-12T14:59:44.001Z,111.88
2018-01-12T15:02:10.851Z,110.05
2018-01-12T15:04:37.955Z,103.07
2018-01-12T15:07:05.129Z,94.32
2018-01-12T15:09:32.983Z,101.12
2018-01-12T15:11:59.931Z,99.95
2018-01-12T15:14:26.774Z,93.12
2018-01-12T15:16:54.350Z,91.82
2018-01-12T15:19:21.944Z,95.53
2018-01-12T15:21:48.817Z,100.47
2018-01-12T15:24:15.733Z,97.20
2018-01-12T15:26:43.418Z,101.10
2018-01-12T15:29:11.011Z,99.35
2018-01-12T15:31:38.589Z,110.45
2018-01-12T15:34:06.697Z,102.62
2018-01-12T15:36:33.626Z,97.75
2018-01-12T15:39:00.485Z,99.60
2018-01-12T15:41:27.305Z,91.35
2018-01-12T15:43:54.875Z,103.22
2018-01-12T15:46:21.678Z,112.00
2018-01-12T15:48:48.881Z,105.10
2018-01-12T15:51:15.703Z,104.90
2018-01-12T15:53:42.497Z,118.85
2018-01-12T15:56:10.029Z,106.57
2018-01-12T15:58:36.872Z,92.88
2018-01-12T16:01:03.739Z,104.45
2018-01-12T16:03:30.597Z,104.85
2018-01-12T16:05:57.378Z,101.53
2018-01-12T16:08:24.157Z,102.18
2018-01-12T16:10:50.962Z,137.07
2018-01-12T16:13:17.721Z,113.18
2018-01-12T16:15:44.494Z,101.43
2018-01-12T16:18:11.340Z,91.35
2018-01-12T16:20:38.125Z,96.05
2018-01-12T16:23:04.873Z,107.28
2018-01-12T16:25:31.653Z,120.80
2018-01-12T16:27:58.449Z,116.78
2018-01-12T16:30:25.215Z,115.40
2018-01-12T16:32:52.750Z,110.43
2018-01-12T16:35:19.539Z,121.57
2018-01-12T16:37:46.329Z,113.22
2018-01-12T16:40:13.138Z,117.57
2018-01-12T16:42:39.953Z,112.30
2018-01-12T16:45:06.767Z,128.85
2018-01-12T16:47:34.500Z,126.03
2018-01-12T16:50:01.380Z,118.60
2018-01-12T16:52:28.230Z,119.50
2018-01-12T16:54:55.029Z,112.18
2018-01-12T16:57:21.814Z,114.10
2018-01-12T16:59:49.354Z,117.00
2018-01-12T17:02:16.129Z,120.97
2018-01-12T17:04:42.937Z,110.80
2018-01-12T17:07:10.448Z,110.35
2018-01-12T17:09:38.067Z,114.47
2018-01-12T17:12:05.633Z,106.68
2018-01-12T17:14:32.526Z,133.18
2018-01-12T17:16:59.604Z,126.95
2018-01-12T17:19:27.196Z,130.65
2018-01-12T17:21:54.041Z,119.22
2018-01-12T17:24:20.997Z,127.40
2018-01-12T17:26:47.770Z,171.95
2018-01-12T17:29:14.630Z,162.88
2018-01-12T17:31:41.402Z,161.18
2018-01-12T17:34:08.232Z,154.65
2018-01-12T17:36:35.059Z,122.20
2018-01-12T17:39:01.845Z,118.80
2018-01-12T17:41:28.640Z,115.62
2018-01-12T17:43:55.424Z,131.32
2018-01-12T17:46:22.358Z,130.82
2018-01-12T17:48:49.189Z,153.65
2018-01-12T17:51:16.747Z,188.70
2018-01-12T17:53:43.655Z,163.50
2018-01-12T17:56:10.448Z,144.87
2018-01-12T17:58:37.289Z,174.43
2018-01-12T18:01:04.110Z,169.65
2018-01-12T18:03:31.688Z,156.02
2018-01-12T18:05:59.229Z,170.85
2018-01-12T18:08:33.402Z,148.62
2018-01-12T18:11:00.324Z,182.48
2018-01-12T18:13:27.161Z,176.98
2018-01-12T18:15:54.773Z,179.27
2018-01-12T18:18:22.351Z,157.23
2018-01-12T18:20:49.177Z,163.23
2018-01-12T18:23:16.254Z,159.35
2018-01-12T18:25:43.139Z,156.27
2018-01-12T18:28:09.973Z,161.35
2018-01-12T18:30:36.934Z,166.15
2018-01-12T18:33:03.788Z,146.68
2018-01-12T18:35:30.665Z,167.37
2018-01-12T18:37:57.507Z,158.57
2018-01-12T18:40:24.441Z,142.30
2018-01-12T18:42:51.376Z,156.65
2018-01-12T18:45:18.275Z,154.05
2018-01-12T18:47:49.828Z,170.27
2018-01-12T18:50:17.430Z,171.68
2018-01-12T18:52:44.266Z,175.23
2018-01-12T18:55:11.883Z,170.50
2018-01-12T18:57:39.264Z,178.23
2018-01-12T19:00:06.106Z,195.87
2018-01-12T19:02:33.035Z,191.27
2018-01-12T19:05:00.644Z,199.45
2018-01-12T19:07:27.581Z,182.37
2018-01-12T19:09:54.444Z,205.25
2018-01-12T19:12:22.071Z,204.73
2018-01-12T19:14:50.615Z,173.77
2018-01-12T19:17:18.915Z,180.15
2018-01-12T19:19:45.991Z,194.02
2018-01-12T19:22:14.250Z,206.38
2018-01-12T19:24:42.358Z,178.55
2018-01-12T19:27:09.823Z,182.10
2018-01-12T19:29:37.362Z,189.75
2018-01-12T19:32:06.062Z,186.62
2018-01-12T19:34:35.435Z,180.15
2018-01-12T19:37:04.154Z,206.48
2018-01-12T19:39:32.818Z,190.23
2018-01-12T19:42:00.974Z,175.07
2018-01-12T19:44:28.932Z,210.18
2018-01-12T19:46:57.502Z,200.48
2018-01-12T19:49:26.318Z,215.62
2018-01-12T19:51:54.797Z,201.40
2018-01-12T19:54:26.055Z,199.40
2018-01-12T19:56:55.656Z,189.50
2018-01-12T19:59:24.540Z,205.87
2018-01-12T20:01:53.387Z,193.95
2018-01-12T20:04:21.857Z,196.37
2018-01-12T20:06:52.557Z,219.10
2018-01-12T20:09:21.292Z,201.85
2018-01-12T20:11:49.954Z,205.62
2018-01-12T20:14:18.883Z,190.23
2018-01-12T20:16:47.842Z,214.32
2018-01-12T20:19:16.618Z,204.57
2018-01-12T20:21:45.878Z,209.48
2018-01-12T20:24:14.802Z,194.32
2018-01-12T20:26:43.789Z,217.93
2018-01-12T20:40:23.442Z,217.45
2018-01-12T20:42:53.107Z,201.40
2018-01-12T20:45:21.951Z,204.85
2018-01-12T20:47:51.576Z,184.25
2018-01-12T20:50:21.117Z,193.23
2018-01-12T20:52:50.067Z,211.43
2018-01-12T20:55:19.010Z,207.00
2018-01-12T20:57:53.240Z,203.32
2018-01-12T21:00:23.105Z,201.43
2018-01-12T21:02:51.659Z,218.05
2018-01-12T21:05:20.541Z,210.20
2018-01-12T21:07:49.325Z,236.65
2018-01-12T21:10:18.005Z,187.60
2018-01-12T21:12:47.799Z,195.55
2018-01-12T21:15:16.599Z,200.38
2018-01-12T21:17:46.112Z,200.27
2018-01-12T21:20:15.761Z,216.90
2018-01-12T21:22:44.548Z,194.85
2018-01-12T21:25:14.341Z,181.10
2018-01-12T21:27:43.369Z,187.12
2018-01-12T21:30:12.178Z,190.95
2018-01-12T21:32:40.719Z,175.10
2018-01-12T21:35:11.503Z,203.80
2018-01-12T21:37:39.490Z,195.85
2018-01-12T21:40:08.404Z,199.32
2018-01-12T21:42:37.114Z,187.37
2018-01-12T21:45:05.969Z,191.95
2018-01-12T21:47:34.948Z,176.63
2018-01-12T21:50:03.942Z,195.23
2018-01-12T21:52:33.572Z,183.55
2018-01-12T21:55:02.356Z,168.90
2018-01-12T21:57:31.808Z,183.68
2018-01-12T22:00:00.523Z,203.25
2018-01-12T22:02:28.562Z,174.40
2018-01-12T22:04:56.082Z,189.85
2018-01-12T22:07:25.690Z,187.52
2018-01-12T22:09:54.862Z,191.40
2018-01-12T22:12:22.732Z,171.52
2018-01-12T22:14:49.916Z,170.43
2018-01-12T22:17:17.525Z,176.80
2018-01-12T22:19:44.500Z,175.38
2018-01-12T22:22:11.606Z,181.32
2018-01-12T22:24:38.650Z,172.80
2018-01-12T22:27:05.474Z,182.55
2018-01-12T22:29:32.327Z,188.80
2018-01-12T22:31:59.169Z,169.80
2018-01-12T22:34:27.075Z,166.27
2018-01-12T22:36:54.522Z,171.13
2018-01-12T22:39:22.969Z,159.45
2018-01-12T22:41:50.792Z,157.88
2018-01-12T22:44:18.499Z,167.32
2018-01-12T22:46:46.268Z,183.18
2018-01-12T22:49:14.063Z,183.85
2018-01-12T22:51:41.990Z,179.45
2018-01-12T22:54:09.256Z,161.10
2018-01-12T22:56:37.023Z,158.90
2018-01-12T22:59:04.838Z,161.50
2018-01-12T23:01:33.423Z,164.98
2018-01-12T23:04:01.156Z,163.85
2018-01-12T23:06:28.949Z,182.57
2018-01-12T23:08:56.735Z,170.73
2018-01-12T23:11:24.503Z,172.82
2018-01-12T23:13:52.057Z,185.12
2018-01-12T23:16:18.871Z,164.05
2018-01-12T23:18:45.692Z,187.77
2018-01-12T23:21:12.520Z,180.07
2018-01-12T23:23:39.298Z,189.85
2018-01-12T23:26:06.111Z,184.70
2018-01-12T23:28:32.938Z,179.52
2018-01-12T23:30:59.817Z,178.52
2018-01-12T23:33:27.364Z,172.43
2018-01-12T23:35:54.189Z,159.35
2018-01-12T23:38:20.966Z,174.07
2018-01-12T23:40:47.759Z,167.90
2018-01-12T23:43:15.378Z,159.18
2018-01-12T23:45:42.232Z,147.73
2018-01-12T23:48:09.089Z,136.05
2018-01-12T23:50:35.912Z,161.10
2018-01-12T23:53:02.842Z,134.50
2018-01-12T23:55:29.659Z,147.15
2018-01-12T23:57:56.570Z,140.23
